Time;durP1;ratioP1;P1;durP2;ratioP2;P2;SDS_P1;SDS_P2;PMS_P1;PMS_P2;Temp;Humidity;BMP_temperature;BMP_pressure;BME280_temperature;BME280_humidity;BME280_pressure;Samples;Min_cycle;Max_cycle;Signal;HPM_P1;HPM_P2
2023/08/18 00:00:00;;;;;;;0.50;0.50;;;16.10;99.90;;;;;;5065447;28;20076;-80
2023/08/18 00:02:26;;;;;;;0.32;0.32;;;16.00;99.90;;;;;;5065131;28;20052;-80
2023/08/18 00:04:52;;;;;;;0.55;0.55;;;16.00;99.90;;;;;;5060195;28;20612;-80
2023/08/18 00:07:18;;;;;;;0.57;0.57;;;16.00;99.90;;;;;;5058805;28;20172;-80
2023/08/18 00:09:43;;;;;;;0.30;0.30;;;16.00;99.90;;;;;;5050790;28;20485;-80
2023/08/18 00:12:10;;;;;;;0.50;0.50;;;16.00;99.90;;;;;;5047806;28;20245;-81
2023/08/18 00:14:36;;;;;;;1.15;1.05;;;16.00;99.90;;;;;;5042827;28;20417;-81
2023/08/18 00:17:02;;;;;;;0.40;0.40;;;15.90;99.90;;;;;;5034094;28;20127;-80
2023/08/18 00:19:28;;;;;;;0.30;0.30;;;15.90;99.90;;;;;;5045233;28;20083;-81
2023/08/18 00:21:53;;;;;;;0.57;0.52;;;15.90;99.90;;;;;;5037762;28;20041;-80
2023/08/18 00:24:19;;;;;;;0.50;0.50;;;15.90;99.90;;;;;;5043215;28;20506;-81
2023/08/18 00:26:47;;;;;;;0.65;0.60;;;15.90;99.90;;;;;;5032043;28;20036;-81
2023/08/18 00:29:14;;;;;;;0.40;0.40;;;15.90;99.90;;;;;;5045693;28;20500;-81
2023/08/18 00:31:40;;;;;;;0.52;0.52;;;15.80;99.90;;;;;;5047017;28;20040;-81
2023/08/18 00:34:06;;;;;;;0.40;0.40;;;15.80;99.90;;;;;;5038748;28;20110;-81
2023/08/18 00:36:32;;;;;;;0.50;0.50;;;15.80;99.90;;;;;;5047063;28;21151;-81
2023/08/18 00:38:58;;;;;;;0.73;0.73;;;15.80;99.90;;;;;;5041309;28;20123;-80
2023/08/18 00:41:25;;;;;;;0.38;0.38;;;15.70;99.90;;;;;;5041534;28;20084;-80
2023/08/18 00:43:51;;;;;;;0.40;0.40;;;15.70;99.90;;;;;;5044220;28;20060;-81
2023/08/18 00:46:18;;;;;;;0.50;0.50;;;15.70;99.90;;;;;;5043107;28;20033;-81
2023/08/18 00:48:44;;;;;;;0.60;0.60;;;15.70;99.90;;;;;;5049211;28;20119;-80
2023/08/18 00:51:10;;;;;;;0.75;0.68;;;15.70;99.90;;;;;;5050034;28;20047;-80
2023/08/18 00:53:37;;;;;;;0.40;0.40;;;15.70;99.90;;;;;;5041269;28;20045;-80
2023/08/18 00:56:05;;;;;;;0.50;0.50;;;15.70;99.90;;;;;;5046118;28;20051;-80
2023/08/18 00:58:31;;;;;;;0.60;0.60;;;15.70;99.90;;;;;;5045485;28;20044;-81
2023/08/18 01:00:56;;;;;;;0.73;0.73;;;15.70;99.90;;;;;;5044546;28;20386;-80
2023/08/18 01:03:22;;;;;;;0.50;0.50;;;15.70;99.90;;;;;;5043614;28;20036;-80
2023/08/18 01:05:48;;;;;;;0.55;0.55;;;15.70;99.90;;;;;;5024057;28;20040;-80
2023/08/18 01:08:13;;;;;;;1.23;1.05;;;15.70;99.90;;;;;;5041945;28;20052;-80
2023/08/18 01:11:10;;;;;;;0.47;0.47;;;15.70;99.90;;;;;;5035344;28;20092;-80
2023/08/18 01:13:53;;;;;;;0.57;0.57;;;15.70;99.90;;;;;;5015678;28;20772;-80
2023/08/18 01:16:27;;;;;;;0.52;0.52;;;15.70;99.90;;;;;;5044492;28;20036;-81
2023/08/18 01:18:54;;;;;;;0.47;0.47;;;15.80;99.90;;;;;;5042545;28;20059;-81
2023/08/18 01:21:23;;;;;;;0.47;0.47;;;15.80;99.90;;;;;;5042644;28;20049;-80
2023/08/18 01:23:49;;;;;;;0.43;0.43;;;15.80;99.90;;;;;;5050008;28;20071;-80
2023/08/18 01:26:16;;;;;;;0.82;0.82;;;15.80;99.90;;;;;;5048885;28;20851;-80
2023/08/18 01:28:43;;;;;;;0.73;0.73;;;15.80;99.90;;;;;;5048757;28;20047;-81
2023/08/18 01:31:24;;;;;;;0.55;0.55;;;15.80;99.90;;;;;;5049475;28;20044;-81
2023/08/18 01:33:57;;;;;;;0.47;0.47;;;15.80;99.90;;;;;;5039367;28;20557;-80
2023/08/18 01:36:26;;;;;;;0.68;0.68;;;15.80;99.90;;;;;;5046231;28;20048;-80
2023/08/18 01:38:55;;;;;;;0.60;0.60;;;15.80;99.90;;;;;;5048363;28;20103;-80
2023/08/18 01:41:23;;;;;;;0.43;0.43;;;15.70;99.90;;;;;;5045657;28;20033;-81
2023/08/18 01:43:50;;;;;;;0.40;0.40;;;15.70;99.90;;;;;;5047760;28;20052;-80
2023/08/18 01:46:16;;;;;;;0.70;0.70;;;15.80;99.90;;;;;;5045732;28;20041;-80
2023/08/18 01:48:42;;;;;;;1.30;1.30;;;15.70;99.90;;;;;;5044906;28;20037;-81
2023/08/18 01:51:08;;;;;;;0.52;0.52;;;15.70;99.90;;;;;;5050405;28;20534;-80
2023/08/18 01:53:33;;;;;;;0.55;0.55;;;15.70;99.90;;;;;;5051842;28;20044;-80
2023/08/18 01:56:00;;;;;;;0.32;0.32;;;15.80;99.90;;;;;;5052592;28;20063;-80
2023/08/18 01:58:27;;;;;;;0.50;0.50;;;15.70;99.90;;;;;;5049581;28;20422;-80
2023/08/18 02:00:55;;;;;;;0.50;0.50;;;15.70;99.90;;;;;;5044294;28;20096;-80
2023/08/18 02:03:21;;;;;;;0.52;0.52;;;15.80;99.90;;;;;;5030770;28;20044;-80
2023/08/18 02:05:47;;;;;;;0.55;0.55;;;15.80;99.90;;;;;;5047415;28;20052;-80
2023/08/18 02:08:13;;;;;;;0.30;0.30;;;15.80;99.90;;;;;;5050785;28;20057;-80
2023/08/18 02:10:39;;;;;;;0.40;0.40;;;15.80;99.90;;;;;;5053805;28;20057;-80
2023/08/18 02:13:05;;;;;;;0.50;0.50;;;15.80;99.90;;;;;;5050923;28;20049;-80
2023/08/18 02:15:31;;;;;;;0.35;0.35;;;15.80;99.90;;;;;;5047859;28;20824;-80
2023/08/18 02:17:57;;;;;;;0.30;0.30;;;15.80;99.90;;;;;;5042144;28;20045;-81
2023/08/18 02:20:23;;;;;;;0.43;0.43;;;15.80;99.90;;;;;;5046077;28;20098;-80
2023/08/18 02:22:49;;;;;;;0.35;0.35;;;15.80;99.90;;;;;;5048970;28;20052;-80
2023/08/18 02:25:15;;;;;;;0.40;0.40;;;15.80;99.90;;;;;;5047634;28;20033;-80
2023/08/18 02:27:40;;;;;;;0.65;0.65;;;15.80;99.90;;;;;;5051959;28;20058;-80
2023/08/18 02:30:06;;;;;;;0.43;0.43;;;15.80;99.90;;;;;;5050549;28;20049;-81
2023/08/18 02:32:32;;;;;;;0.90;0.90;;;15.80;99.90;;;;;;5049623;28;20079;-81
2023/08/18 02:34:58;;;;;;;0.77;0.77;;;15.80;99.90;;;;;;5050998;28;20436;-81
2023/08/18 02:37:23;;;;;;;0.50;0.50;;;15.70;99.90;;;;;;5052997;28;20040;-80
2023/08/18 02:39:49;;;;;;;0.55;0.55;;;15.70;99.90;;;;;;5048525;28;20048;-81
2023/08/18 02:42:15;;;;;;;0.73;0.73;;;15.70;99.90;;;;;;5051350;28;20041;-81
2023/08/18 02:44:41;;;;;;;0.40;0.40;;;15.70;99.90;;;;;;5051390;28;20051;-80
2023/08/18 02:47:06;;;;;;;0.30;0.30;;;15.70;99.90;;;;;;5043331;28;20045;-81
2023/08/18 02:49:32;;;;;;;0.50;0.50;;;15.70;99.90;;;;;;5048490;28;20505;-80
2023/08/18 02:51:58;;;;;;;0.70;0.70;;;15.70;99.90;;;;;;5044506;28;20045;-81
2023/08/18 02:54:24;;;;;;;0.52;0.52;;;15.70;99.90;;;;;;5051389;28;20154;-82
2023/08/18 02:56:49;;;;;;;0.93;0.70;;;15.70;99.90;;;;;;5048833;28;20165;-80
2023/08/18 02:59:17;;;;;;;0.60;0.60;;;15.70;99.90;;;;;;5046758;28;20044;-81
2023/08/18 03:01:43;;;;;;;1.05;1.05;;;15.70;99.90;;;;;;5041989;28;20053;-80
2023/08/18 03:04:09;;;;;;;0.30;0.30;;;15.70;99.90;;;;;;5044976;28;20100;-80
2023/08/18 03:06:34;;;;;;;0.65;0.55;;;15.70;99.90;;;;;;5047636;28;20048;-81
2023/08/18 03:09:00;;;;;;;0.30;0.30;;;15.70;99.90;;;;;;5054046;28;20064;-81
2023/08/18 03:11:26;;;;;;;1.00;0.98;;;15.80;99.90;;;;;;5063304;28;20081;-80
2023/08/18 03:13:51;;;;;;;0.32;0.32;;;15.70;99.90;;;;;;5062041;28;20044;-80
2023/08/18 03:16:18;;;;;;;7.10;1.00;;;15.70;99.90;;;;;;5046090;28;20041;-80
2023/08/18 03:18:44;;;;;;;0.40;0.40;;;15.70;99.90;;;;;;5059178;28;20521;-80
2023/08/18 03:21:09;;;;;;;0.40;0.40;;;15.70;99.90;;;;;;5060117;28;20040;-80
2023/08/18 03:23:35;;;;;;;0.43;0.43;;;15.70;99.90;;;;;;5066060;28;20461;-80
2023/08/18 03:26:03;;;;;;;0.50;0.50;;;15.70;99.90;;;;;;5066011;28;20040;-80
2023/08/18 03:28:31;;;;;;;0.40;0.40;;;15.70;99.90;;;;;;5047506;28;20541;-80
2023/08/18 03:31:07;;;;;;;0.60;0.60;;;15.70;99.90;;;;;;5067757;28;20533;-80
2023/08/18 03:33:34;;;;;;;0.60;0.60;;;15.70;99.90;;;;;;5060838;28;20072;-80
2023/08/18 03:35:59;;;;;;;0.35;0.35;;;15.70;99.90;;;;;;5044034;28;20068;-81
2023/08/18 03:38:25;;;;;;;0.77;0.77;;;15.70;99.90;;;;;;5067793;28;20072;-80
2023/08/18 03:41:05;;;;;;;0.40;0.40;;;15.70;99.90;;;;;;5066550;28;20044;-81
2023/08/18 03:43:35;;;;;;;0.40;0.40;;;15.80;99.90;;;;;;5065781;28;20458;-80
2023/08/18 03:46:15;;;;;;;0.40;0.40;;;15.70;99.90;;;;;;5065408;28;20132;-81
2023/08/18 03:48:41;;;;;;;0.73;0.73;;;15.80;99.90;;;;;;5061928;28;20455;-81
2023/08/18 03:51:06;;;;;;;0.63;0.55;;;15.80;99.90;;;;;;5064917;28;20120;-80
2023/08/18 03:53:32;;;;;;;0.38;0.38;;;15.70;99.90;;;;;;5058503;28;20128;-81
2023/08/18 03:55:59;;;;;;;0.70;0.70;;;15.70;99.90;;;;;;5067530;28;20064;-81
2023/08/18 03:58:25;;;;;;;0.40;0.40;;;15.80;99.90;;;;;;5068718;28;20041;-81
2023/08/18 04:00:56;;;;;;;0.80;0.52;;;15.80;99.90;;;;;;5064487;28;20076;-80
2023/08/18 04:03:22;;;;;;;0.40;0.40;;;15.70;99.90;;;;;;5064821;28;20045;-80
2023/08/18 04:05:47;;;;;;;0.50;0.50;;;15.70;99.90;;;;;;5064273;28;20485;-80
2023/08/18 04:08:15;;;;;;;0.75;0.75;;;15.70;99.90;;;;;;5066484;28;20048;-80
2023/08/18 04:10:41;;;;;;;0.60;0.60;;;15.70;99.90;;;;;;5068829;28;20060;-80
2023/08/18 04:13:07;;;;;;;1.92;1.08;;;15.70;99.90;;;;;;5066386;28;20040;-81
2023/08/18 04:15:32;;;;;;;0.43;0.43;;;15.70;99.90;;;;;;5069592;28;20040;-80
2023/08/18 04:17:58;;;;;;;0.30;0.30;;;15.70;99.90;;;;;;5068584;28;20039;-80
2023/08/18 04:20:24;;;;;;;0.60;0.60;;;15.70;99.90;;;;;;5068596;28;20545;-80
2023/08/18 04:22:49;;;;;;;0.50;0.50;;;15.70;99.90;;;;;;5066512;28;20544;-80
2023/08/18 04:25:15;;;;;;;0.60;0.60;;;15.80;99.90;;;;;;5064949;28;20274;-80
2023/08/18 04:27:42;;;;;;;0.88;0.88;;;15.80;99.90;;;;;;5057993;28;20055;-81
2023/08/18 04:30:10;;;;;;;0.63;0.63;;;15.80;99.90;;;;;;5070903;28;20189;-80
2023/08/18 04:32:41;;;;;;;0.50;0.50;;;15.80;99.90;;;;;;5069842;28;20153;-81
2023/08/18 04:35:07;;;;;;;0.68;0.68;;;15.80;99.90;;;;;;5069509;28;20613;-80
2023/08/18 04:37:32;;;;;;;0.57;0.57;;;15.80;99.90;;;;;;5065988;28;20039;-80
2023/08/18 04:39:58;;;;;;;0.60;0.60;;;15.80;99.90;;;;;;5069798;28;20063;-81
2023/08/18 04:42:24;;;;;;;0.40;0.40;;;15.90;99.90;;;;;;5069802;28;20052;-81
2023/08/18 04:44:50;;;;;;;0.40;0.40;;;15.90;99.90;;;;;;5061044;28;20421;-81
2023/08/18 04:47:17;;;;;;;0.30;0.30;;;15.90;99.90;;;;;;5069668;28;20052;-81
2023/08/18 04:49:43;;;;;;;0.40;0.40;;;15.90;99.90;;;;;;5066005;28;20070;-80
2023/08/18 04:52:10;;;;;;;0.32;0.32;;;15.90;99.90;;;;;;5044767;28;20064;-81
2023/08/18 04:54:35;;;;;;;1.38;1.30;;;15.90;99.90;;;;;;5066522;28;20600;-80
2023/08/18 04:57:03;;;;;;;0.55;0.55;;;15.90;99.90;;;;;;5069435;28;20097;-80
2023/08/18 04:59:29;;;;;;;0.30;0.30;;;15.90;99.90;;;;;;5069472;28;20051;-80
2023/08/18 05:01:55;;;;;;;0.65;0.65;;;15.90;99.90;;;;;;5063324;28;20633;-81
2023/08/18 05:04:22;;;;;;;0.88;0.88;;;15.90;99.90;;;;;;5066975;28;20040;-80
2023/08/18 05:06:47;;;;;;;0.63;0.63;;;15.90;99.90;;;;;;5062755;28;20059;-80
2023/08/18 05:09:13;;;;;;;0.50;0.50;;;15.90;99.90;;;;;;5067610;28;20043;-80
2023/08/18 05:11:38;;;;;;;0.55;0.55;;;15.90;99.90;;;;;;5066771;28;20133;-81
2023/08/18 05:14:04;;;;;;;0.52;0.52;;;15.90;99.90;;;;;;5069502;28;20549;-80
2023/08/18 05:16:30;;;;;;;0.80;0.80;;;16.00;99.90;;;;;;5058400;28;20139;-80
2023/08/18 05:18:57;;;;;;;2.25;1.23;;;16.00;99.90;;;;;;5063031;28;20036;-80
2023/08/18 05:21:25;;;;;;;0.77;0.77;;;16.00;99.90;;;;;;5066824;28;20033;-81
2023/08/18 05:23:50;;;;;;;1.05;1.05;;;16.00;99.90;;;;;;5068957;28;20791;-80
2023/08/18 05:26:16;;;;;;;1.23;1.15;;;16.00;99.90;;;;;;5048358;28;20047;-80
2023/08/18 05:28:43;;;;;;;5.38;0.77;;;16.00;99.90;;;;;;5066058;28;20197;-81
2023/08/18 05:31:11;;;;;;;0.80;0.80;;;16.00;99.90;;;;;;5060187;28;20059;-80
2023/08/18 05:33:37;;;;;;;0.60;0.60;;;16.00;99.90;;;;;;5065806;28;20056;-80
2023/08/18 05:36:05;;;;;;;0.57;0.57;;;16.00;99.90;;;;;;5068651;28;20850;-81
2023/08/18 05:38:32;;;;;;;0.60;0.60;;;16.00;99.90;;;;;;5079584;28;20485;-81
2023/08/18 05:41:11;;;;;;;0.60;0.60;;;16.10;99.90;;;;;;5061570;28;20051;-81
2023/08/18 05:43:38;;;;;;;0.75;0.75;;;16.00;99.90;;;;;;5060605;28;20052;-81
2023/08/18 05:46:05;;;;;;;0.65;0.65;;;16.10;99.90;;;;;;5062008;28;20055;-80
2023/08/18 05:48:32;;;;;;;0.30;0.30;;;16.10;99.90;;;;;;5060009;28;20047;-81
2023/08/18 05:50:59;;;;;;;0.30;0.30;;;16.10;99.90;;;;;;5059661;28;20155;-80
2023/08/18 05:53:25;;;;;;;0.50;0.50;;;16.10;99.90;;;;;;5059698;28;20052;-81
2023/08/18 05:55:52;;;;;;;0.63;0.63;;;16.10;99.90;;;;;;5060647;28;20028;-81
2023/08/18 05:58:18;;;;;;;0.40;0.40;;;16.10;99.90;;;;;;5061084;28;20044;-81
2023/08/18 06:00:44;;;;;;;0.70;0.70;;;16.20;99.90;;;;;;5059351;28;20562;-81
2023/08/18 06:03:09;;;;;;;1.00;0.55;;;16.20;99.90;;;;;;5060621;28;20123;-81
2023/08/18 06:05:35;;;;;;;1.60;1.50;;;16.20;99.90;;;;;;5060635;28;20127;-80
2023/08/18 06:08:01;;;;;;;0.57;0.57;;;16.20;99.90;;;;;;5060046;28;20067;-81
2023/08/18 06:10:26;;;;;;;1.50;1.33;;;16.20;99.90;;;;;;5041825;28;20088;-82
2023/08/18 06:12:52;;;;;;;1.00;0.90;;;16.20;99.90;;;;;;5037423;28;20499;-81
2023/08/18 06:15:21;;;;;;;1.67;1.58;;;16.30;99.90;;;;;;5037392;28;20040;-81
2023/08/18 06:17:47;;;;;;;1.08;1.08;;;16.30;99.90;;;;;;5039656;28;20064;-82
2023/08/18 06:20:15;;;;;;;3.95;1.63;;;16.30;99.90;;;;;;5040708;28;20094;-80
2023/08/18 06:22:41;;;;;;;1.02;1.02;;;16.30;99.90;;;;;;5039852;28;20044;-81
2023/08/18 06:25:07;;;;;;;2.35;1.38;;;16.30;99.90;;;;;;5040811;28;21504;-82
2023/08/18 06:27:33;;;;;;;1.55;1.45;;;16.30;99.90;;;;;;5039057;28;20033;-81
2023/08/18 06:29:59;;;;;;;0.73;0.70;;;16.30;99.90;;;;;;5039516;28;20102;-82
2023/08/18 06:32:24;;;;;;;1.05;1.05;;;16.30;99.90;;;;;;5040135;28;20037;-82
2023/08/18 06:34:51;;;;;;;1.40;1.35;;;16.30;99.90;;;;;;5038244;28;20102;-81
2023/08/18 06:37:16;;;;;;;0.95;0.95;;;16.30;99.90;;;;;;5035560;28;20040;-82
2023/08/18 06:39:44;;;;;;;1.83;1.73;;;16.40;99.90;;;;;;5041471;28;20690;-81
2023/08/18 06:42:11;;;;;;;;;;;16.40;99.90;;;;;;5045439;28;20082;-81
2023/08/18 06:44:37;;;;;;;3.15;1.73;;;16.50;99.90;;;;;;5028134;28;19946;-83
2023/08/18 06:47:03;;;;;;;1.20;1.20;;;16.50;99.90;;;;;;5028643;28;20041;-82
2023/08/18 06:49:29;;;;;;;1.90;1.80;;;16.50;99.90;;;;;;5042199;28;20051;-81
2023/08/18 06:51:54;;;;;;;1.58;1.30;;;16.50;99.90;;;;;;5042054;28;20040;-80
2023/08/18 06:54:20;;;;;;;1.48;1.45;;;16.60;99.90;;;;;;5043297;28;20068;-82
2023/08/18 06:56:45;;;;;;;1.50;1.10;;;16.60;99.90;;;;;;5041691;28;20500;-80
2023/08/18 06:59:12;;;;;;;1.70;1.60;;;16.60;99.90;;;;;;5043692;28;20081;-82
2023/08/18 07:01:39;;;;;;;1.30;1.20;;;16.50;99.90;;;;;;5043311;28;20125;-82
2023/08/18 07:04:05;;;;;;;1.85;1.75;;;16.60;99.90;;;;;;5041422;28;20433;-82
2023/08/18 07:06:32;;;;;;;2.45;2.25;;;16.60;99.90;;;;;;5044969;28;20053;-81
2023/08/18 07:08:58;;;;;;;1.38;1.33;;;16.50;99.90;;;;;;5028146;28;20053;-81
2023/08/18 07:11:24;;;;;;;9.85;2.95;;;16.50;99.90;;;;;;5043451;28;20126;-80
2023/08/18 07:13:49;;;;;;;0.95;0.95;;;16.60;99.90;;;;;;5043469;28;20044;-79
2023/08/18 07:16:15;;;;;;;2.95;1.73;;;16.60;99.90;;;;;;5043395;28;20047;-82
2023/08/18 07:18:41;;;;;;;1.35;1.25;;;16.60;99.90;;;;;;5042404;28;20070;-82
2023/08/18 07:21:07;;;;;;;4.63;1.95;;;16.70;99.90;;;;;;5054151;28;20102;-81
2023/08/18 07:23:32;;;;;;;5.97;1.65;;;16.70;99.90;;;;;;5041713;28;20048;-81
2023/08/18 07:26:01;;;;;;;6.70;2.63;;;16.70;99.90;;;;;;5044175;28;20052;-81
2023/08/18 07:28:27;;;;;;;9.05;1.85;;;16.70;99.90;;;;;;5043347;28;20052;-82
2023/08/18 07:30:53;;;;;;;1.77;1.67;;;16.80;99.90;;;;;;5042506;28;20044;-82
2023/08/18 07:33:19;;;;;;;2.70;2.45;;;16.80;99.90;;;;;;5043501;28;20628;-81
2023/08/18 07:35:46;;;;;;;1.80;1.65;;;16.80;99.90;;;;;;5042893;28;20081;-82
2023/08/18 07:38:12;;;;;;;5.20;2.28;;;16.90;99.90;;;;;;5043685;28;20060;-82
2023/08/18 07:40:37;;;;;;;1.85;1.60;;;17.00;99.90;;;;;;5043163;28;20033;-82
2023/08/18 07:43:03;;;;;;;0.82;0.82;;;17.00;99.90;;;;;;5042249;28;20053;-82
2023/08/18 07:45:29;;;;;;;5.32;1.98;;;17.00;99.90;;;;;;5043769;28;20041;-82
2023/08/18 07:47:55;;;;;;;1.77;1.67;;;17.00;99.90;;;;;;5042347;28;20041;-82
2023/08/18 07:50:21;;;;;;;2.35;1.83;;;17.10;99.90;;;;;;5042904;28;20123;-81
2023/08/18 07:52:46;;;;;;;2.63;1.98;;;17.10;99.90;;;;;;5041239;28;20410;-81
2023/08/18 07:55:13;;;;;;;2.42;2.17;;;17.10;99.90;;;;;;5042951;28;20512;-82
2023/08/18 07:57:39;;;;;;;1.63;1.52;;;17.20;99.90;;;;;;5041329;28;20052;-82
2023/08/18 08:00:27;;;;;;;3.85;2.63;;;17.20;99.90;;;;;;5041069;28;20106;-81
2023/08/18 08:02:52;;;;;;;;;;;17.20;99.90;;;;;;5040952;28;20044;-82
2023/08/18 08:05:19;;;;;;;2.53;1.90;;;17.20;99.90;;;;;;5044895;28;19927;-81
2023/08/18 08:07:46;;;;;;;1.75;1.65;;;17.20;99.90;;;;;;5047024;28;20498;-81
2023/08/18 08:10:12;;;;;;;2.53;2.20;;;17.30;99.90;;;;;;5058985;28;20061;-80
2023/08/18 08:12:39;;;;;;;0.90;0.90;;;17.30;99.90;;;;;;5066219;28;20050;-82
2023/08/18 08:15:07;;;;;;;1.23;1.13;;;17.40;99.90;;;;;;5063293;28;20040;-81
2023/08/18 08:17:33;;;;;;;2.17;1.10;;;17.40;99.90;;;;;;5065907;28;20049;-81
2023/08/18 08:20:00;;;;;;;0.40;0.40;;;17.40;99.90;;;;;;5050076;28;20138;-81
2023/08/18 08:22:29;;;;;;;1.60;1.57;;;17.50;99.90;;;;;;5067570;28;20056;-82
2023/08/18 08:24:58;;;;;;;1.95;1.85;;;17.60;99.90;;;;;;5057493;28;20128;-81
2023/08/18 08:27:23;;;;;;;1.30;1.30;;;17.60;99.90;;;;;;5059249;28;20143;-81
2023/08/18 08:29:51;;;;;;;1.70;1.17;;;17.60;99.90;;;;;;5064317;28;20044;-81
2023/08/18 08:32:17;;;;;;;1.55;1.45;;;17.70;99.90;;;;;;5066602;28;20048;-82
2023/08/18 08:34:52;;;;;;;2.72;2.53;;;17.70;99.90;;;;;;5066996;28;20047;-81
2023/08/18 08:37:18;;;;;;;4.43;2.55;;;17.80;99.90;;;;;;5060642;28;20047;-80
2023/08/18 08:39:44;;;;;;;2.33;2.22;;;17.90;99.90;;;;;;5058082;28;20448;-82
2023/08/18 08:42:10;;;;;;;1.10;1.10;;;17.90;99.90;;;;;;5056833;28;20335;-81
2023/08/18 08:44:37;;;;;;;3.50;2.20;;;18.00;99.90;;;;;;5065413;28;20056;-82
2023/08/18 08:47:03;;;;;;;5.22;2.30;;;18.10;99.90;;;;;;5066773;28;20045;-82
2023/08/18 08:49:42;;;;;;;2.67;1.25;;;18.20;99.90;;;;;;5066661;28;20061;-82
2023/08/18 08:52:19;;;;;;;2.10;2.00;;;18.30;99.90;;;;;;5067218;28;20125;-82
2023/08/18 08:54:57;;;;;;;5.22;2.45;;;18.50;99.90;;;;;;5064633;28;20402;-82
2023/08/18 08:57:25;;;;;;;4.47;4.15;;;18.70;99.90;;;;;;5051759;28;20063;-82
2023/08/18 08:59:54;;;;;;;1.40;1.35;;;18.80;99.90;;;;;;5066306;28;20073;-82
2023/08/18 09:02:20;;;;;;;2.30;2.13;;;18.90;99.90;;;;;;5067162;28;20047;-82
2023/08/18 09:04:46;;;;;;;3.53;2.50;;;18.90;99.90;;;;;;5065481;28;20044;-82
2023/08/18 09:07:14;;;;;;;2.20;2.10;;;18.90;99.90;;;;;;5062922;28;20056;-82
2023/08/18 09:09:40;;;;;;;2.08;1.83;;;18.90;99.90;;;;;;5059700;28;20056;-82
2023/08/18 09:12:10;;;;;;;2.65;2.45;;;19.00;99.90;;;;;;5063716;28;20047;-82
2023/08/18 09:14:40;;;;;;;2.05;1.80;;;19.00;99.90;;;;;;5049684;28;20049;-82
2023/08/18 09:17:06;;;;;;;2.17;1.15;;;19.00;99.90;;;;;;5059510;28;20041;-83
2023/08/18 09:19:33;;;;;;;1.77;1.73;;;19.10;99.90;;;;;;5058118;28;20548;-82
2023/08/18 09:22:03;;;;;;;1.15;1.15;;;19.20;99.90;;;;;;5046732;28;20052;-82
2023/08/18 09:24:31;;;;;;;3.88;1.80;;;19.40;99.90;;;;;;5054403;28;20048;-82
2023/08/18 09:27:09;;;;;;;1.60;1.50;;;19.40;99.90;;;;;;5053112;28;20055;-82
2023/08/18 09:29:36;;;;;;;5.00;2.72;;;19.40;99.90;;;;;;5052643;28;20117;-81
2023/08/18 09:32:02;;;;;;;1.37;1.37;;;19.40;99.90;;;;;;5048343;28;20067;-81
2023/08/18 09:34:30;;;;;;;0.50;0.50;;;19.50;99.90;;;;;;5049883;28;20131;-83
2023/08/18 09:36:55;;;;;;;;;;;19.50;99.90;;;;;;5046559;28;20053;-82
2023/08/18 09:39:22;;;;;;;2.60;2.28;;;19.60;99.90;;;;;;5045294;28;19925;-83
2023/08/18 09:41:52;;;;;;;1.48;1.38;;;19.60;99.90;;;;;;5039442;28;20067;-82
2023/08/18 09:44:18;;;;;;;1.65;1.15;;;19.70;99.90;;;;;;5043419;28;20102;-81
2023/08/18 09:46:54;;;;;;;2.05;1.95;;;19.70;99.90;;;;;;5041271;28;20041;-82
2023/08/18 09:49:21;;;;;;;0.75;0.75;;;19.80;99.90;;;;;;5049006;28;20053;-82
2023/08/18 09:51:52;;;;;;;1.88;1.70;;;19.80;99.90;;;;;;5044879;28;20119;-82
2023/08/18 09:54:19;;;;;;;1.45;1.42;;;19.90;99.90;;;;;;5038492;28;20055;-82
2023/08/18 09:56:48;;;;;;;2.45;2.25;;;19.90;99.90;;;;;;5052815;28;20080;-81
2023/08/18 09:59:28;;;;;;;1.77;1.67;;;20.00;99.90;;;;;;5057937;28;20119;-82
2023/08/18 10:01:55;;;;;;;1.92;1.83;;;20.00;99.90;;;;;;5030260;28;20102;-82
2023/08/18 10:04:25;;;;;;;1.88;1.77;;;20.00;99.90;;;;;;5041762;28;20052;-82
2023/08/18 10:06:54;;;;;;;1.17;1.17;;;20.00;99.90;;;;;;5043936;28;20513;-82
2023/08/18 10:09:22;;;;;;;1.45;1.38;;;20.10;99.90;;;;;;5033480;28;20092;-82
2023/08/18 10:11:52;;;;;;;1.38;1.30;;;20.20;99.90;;;;;;5062360;28;20523;-82
2023/08/18 10:14:21;;;;;;;1.52;1.42;;;20.30;99.90;;;;;;5058664;28;20115;-83
2023/08/18 10:16:48;;;;;;;1.60;1.50;;;20.30;99.90;;;;;;5055651;28;20049;-82
2023/08/18 10:19:14;;;;;;;2.03;1.92;;;20.30;99.90;;;;;;5058419;28;20132;-83
2023/08/18 10:21:39;;;;;;;1.02;1.02;;;20.30;99.90;;;;;;5041227;28;20123;-82
2023/08/18 10:24:06;;;;;;;2.13;2.03;;;20.30;99.90;;;;;;5047778;28;20044;-82
2023/08/18 10:26:39;;;;;;;0.98;0.85;;;20.40;99.90;;;;;;5052002;28;20049;-82
2023/08/18 10:29:16;;;;;;;1.42;1.33;;;20.50;99.90;;;;;;5057977;28;20052;-82
2023/08/18 10:31:48;;;;;;;1.20;1.10;;;20.60;99.90;;;;;;5041405;28;20119;-82
2023/08/18 10:34:22;;;;;;;1.40;1.30;;;20.80;99.90;;;;;;5069899;28;20052;-82
2023/08/18 10:36:56;;;;;;;0.88;0.88;;;20.90;99.90;;;;;;5063299;28;20090;-82
2023/08/18 10:39:24;;;;;;;1.05;1.00;;;21.00;99.90;;;;;;5054233;28;20044;-82
2023/08/18 10:42:10;;;;;;;1.20;1.10;;;21.00;99.90;;;;;;5054607;28;20825;-82
2023/08/18 10:44:35;;;;;;;1.55;1.30;;;21.00;99.90;;;;;;5060139;28;20039;-82
2023/08/18 10:47:03;;;;;;;1.60;1.02;;;21.10;99.90;;;;;;5061849;28;20044;-82
2023/08/18 10:49:29;;;;;;;1.52;1.42;;;21.10;99.90;;;;;;5055629;28;20083;-83
2023/08/18 10:51:55;;;;;;;1.98;1.30;;;21.30;99.90;;;;;;5065979;28;20041;-82
2023/08/18 10:54:24;;;;;;;1.85;1.75;;;21.40;99.90;;;;;;5052387;28;20056;-82
2023/08/18 10:56:50;;;;;;;1.27;1.17;;;21.50;99.90;;;;;;5045978;28;20045;-82
2023/08/18 10:59:18;;;;;;;1.50;1.40;;;21.70;99.90;;;;;;5064316;28;20043;-82
2023/08/18 11:01:43;;;;;;;;;;;21.80;99.90;;;;;;5063479;28;20052;-82
2023/08/18 11:04:09;;;;;;;2.15;1.35;;;21.90;99.90;;;;;;5057403;28;20404;-82
2023/08/18 11:06:36;;;;;;;1.35;1.35;;;22.00;99.90;;;;;;5053344;28;20060;-82
2023/08/18 11:09:04;;;;;;;2.05;1.88;;;22.10;99.90;;;;;;5042736;28;20055;-82
2023/08/18 11:11:30;;;;;;;2.42;2.22;;;22.10;99.90;;;;;;5054833;28;20068;-83
2023/08/18 11:13:55;;;;;;;2.30;2.20;;;22.10;99.90;;;;;;5048549;28;20574;-82
2023/08/18 11:16:23;;;;;;;1.65;1.55;;;22.10;99.90;;;;;;5048049;28;20097;-82
2023/08/18 11:18:51;;;;;;;2.13;1.67;;;22.10;99.90;;;;;;5050812;28;20470;-82
2023/08/18 11:21:17;;;;;;;1.48;1.38;;;22.10;99.90;;;;;;5046966;28;20080;-82
2023/08/18 11:23:43;;;;;;;2.63;2.03;;;22.10;99.90;;;;;;5050769;28;20082;-82
2023/08/18 11:26:09;;;;;;;2.10;2.00;;;22.10;99.90;;;;;;5049774;28;20101;-83
2023/08/18 11:28:35;;;;;;;0.93;0.70;;;22.20;99.90;;;;;;5042746;28;20048;-81
2023/08/18 11:31:05;;;;;;;0.90;0.82;;;22.20;99.90;;;;;;5044937;28;20124;-81
2023/08/18 11:33:31;;;;;;;1.48;1.42;;;22.20;99.90;;;;;;5032755;28;20052;-82
2023/08/18 11:35:57;;;;;;;2.22;1.67;;;22.40;99.90;;;;;;5050114;28;20040;-82
2023/08/18 11:38:23;;;;;;;3.42;2.22;;;22.60;99.90;;;;;;5051553;28;20047;-82
2023/08/18 11:40:48;;;;;;;1.75;1.65;;;22.80;99.90;;;;;;5048133;28;20401;-82
2023/08/18 11:43:15;;;;;;;1.83;1.73;;;22.80;99.90;;;;;;5048024;28;20072;-81
2023/08/18 11:45:41;;;;;;;1.00;0.95;;;22.90;99.90;;;;;;5049300;28;20043;-81
2023/08/18 11:48:07;;;;;;;0.60;0.60;;;23.00;99.90;;;;;;5047422;28;20059;-81
2023/08/18 11:50:35;;;;;;;1.33;1.33;;;23.10;99.90;;;;;;5048873;28;20064;-81
2023/08/18 11:53:03;;;;;;;2.17;1.67;;;23.20;99.90;;;;;;5050708;28;20127;-81
2023/08/18 11:55:38;;;;;;;1.38;1.27;;;23.20;99.90;;;;;;5029771;28;20506;-81
2023/08/18 11:58:10;;;;;;;1.77;1.25;;;23.30;99.90;;;;;;5040656;28;20120;-81
2023/08/18 12:00:40;;;;;;;1.52;1.50;;;23.50;99.90;;;;;;5036425;28;20578;-81
2023/08/18 12:03:20;;;;;;;1.40;1.30;;;23.70;99.90;;;;;;5049390;28;20088;-80
2023/08/18 12:05:46;;;;;;;3.50;1.42;;;23.80;99.90;;;;;;5065427;28;20564;-81
2023/08/18 12:08:12;;;;;;;1.20;1.20;;;23.90;99.90;;;;;;5048431;28;20037;-81
2023/08/18 12:10:38;;;;;;;3.13;2.92;;;23.80;99.90;;;;;;5061452;28;20139;-81
2023/08/18 12:13:04;;;;;;;1.13;1.13;;;23.80;99.90;;;;;;5061922;28;20090;-81
2023/08/18 12:15:29;;;;;;;1.65;1.55;;;23.80;99.90;;;;;;5068100;28;20451;-80
2023/08/18 12:17:55;;;;;;;1.75;1.70;;;23.90;99.90;;;;;;5068483;28;20363;-80
2023/08/18 12:20:23;;;;;;;3.80;1.83;;;24.20;99.90;;;;;;5068579;28;20045;-81
2023/08/18 12:22:50;;;;;;;1.00;1.00;;;24.20;99.90;;;;;;5067315;28;20066;-82
2023/08/18 12:25:17;;;;;;;1.73;1.63;;;24.20;99.90;;;;;;5063779;28;20417;-81
2023/08/18 12:27:47;;;;;;;0.97;0.97;;;24.10;99.90;;;;;;5064495;28;20045;-82
2023/08/18 12:30:14;;;;;;;2.50;2.28;;;24.10;99.90;;;;;;5064400;28;20098;-81
2023/08/18 12:32:41;;;;;;;2.00;1.83;;;24.10;99.90;;;;;;5069182;28;20081;-81
2023/08/18 12:35:07;;;;;;;1.27;1.20;;;24.00;99.90;;;;;;5065458;28;20414;-81
2023/08/18 12:37:33;;;;;;;2.13;1.98;;;23.90;99.90;;;;;;5065331;28;20413;-82
2023/08/18 12:39:59;;;;;;;1.67;1.58;;;23.90;99.90;;;;;;5063955;28;20040;-82
2023/08/18 12:42:25;;;;;;;0.63;0.63;;;23.90;99.90;;;;;;5064898;28;20093;-82
2023/08/18 12:44:51;;;;;;;1.35;1.35;;;24.00;99.90;;;;;;5052386;28;20066;-82
2023/08/18 12:47:17;;;;;;;2.42;2.25;;;24.20;99.90;;;;;;5069162;28;20048;-81